Time;durP1;ratioP1;P1;durP2;ratioP2;P2;SDS_P1;SDS_P2;PMS_P1;PMS_P2;Temp;Humidity;BMP_temperature;BMP_pressure;BME280_temperature;BME280_humidity;BME280_pressure;Samples;Min_cycle;Max_cycle;Signal;HPM_P1;HPM_P2
2022/11/17 00:02:26;;;;;;;12.50;4.93;;;11.30;99.90;;;;;;2619003;54;20134;-81
2022/11/17 00:08:14;;;;;;;6.33;2.90;;;11.30;99.90;;;;;;2618128;54;20130;-82
2022/11/17 00:10:39;;;;;;;4.77;2.80;;;11.30;99.90;;;;;;2616419;54;20431;-78
2022/11/17 00:25:17;;;;;;;6.03;2.20;;;11.00;99.90;;;;;;2615554;54;20391;-77
2022/11/17 00:37:13;;;;;;;5.13;2.77;;;11.10;99.90;;;;;;2615003;47;20419;-79
2022/11/17 00:46:48;;;;;;;4.37;2.20;;;10.90;99.90;;;;;;2615934;54;20627;-77
2022/11/17 00:52:36;;;;;;;4.23;1.80;;;11.00;99.90;;;;;;2627816;54;20442;-83
2022/11/17 00:58:24;;;;;;;2.90;2.50;;;11.10;99.90;;;;;;2633918;39;20443;-81
2022/11/17 01:00:49;;;;;;;5.00;2.40;;;11.10;99.90;;;;;;2624942;54;20383;-77
2022/11/17 01:06:39;;;;;;;3.00;2.57;;;11.00;99.90;;;;;;2615805;54;20281;-76
2022/11/17 01:12:26;;;;;;;5.33;2.50;;;11.00;99.90;;;;;;2614575;54;20395;-76
2022/11/17 01:18:13;;;;;;;3.10;2.20;;;10.90;99.90;;;;;;2614395;54;20262;-75
2022/11/17 01:24:01;;;;;;;9.03;2.50;;;10.80;99.90;;;;;;2615061;54;20163;-76
2022/11/17 01:29:48;;;;;;;5.10;2.30;;;10.70;99.90;;;;;;2614109;54;20456;-74
2022/11/17 01:35:35;;;;;;;4.53;2.10;;;10.40;99.90;;;;;;2614551;54;20170;-75
2022/11/17 01:41:25;;;;;;;3.43;2.37;;;10.40;99.90;;;;;;2613887;54;20123;-75
2022/11/17 01:47:18;;;;;;;3.60;1.83;;;10.40;99.90;;;;;;2615471;39;20906;-76
2022/11/17 01:56:34;;;;;;;5.60;2.30;;;10.40;99.90;;;;;;2614421;54;20423;-74
2022/11/17 02:12:15;;;;;;;11.03;2.70;;;10.40;99.90;;;;;;2614481;54;20399;-76
2022/11/17 02:18:03;;;;;;;6.47;2.87;;;10.40;99.90;;;;;;2613937;54;20510;-74
2022/11/17 02:23:51;;;;;;;4.13;2.20;;;10.40;99.90;;;;;;2614542;54;21031;-75
2022/11/17 02:33:00;;;;;;;6.43;2.47;;;10.40;99.90;;;;;;2613690;39;20758;-78
2022/11/17 02:49:31;;;;;;;3.17;2.20;;;10.50;99.90;;;;;;2613834;54;20402;-75
2022/11/17 02:55:18;;;;;;;3.50;1.93;;;10.50;99.90;;;;;;2615418;54;20406;-75
2022/11/17 03:07:51;;;;;;;3.73;2.00;;;10.60;99.90;;;;;;2615074;54;20406;-76
2022/11/17 03:13:39;;;;;;;1.73;1.50;;;10.70;99.90;;;;;;2615314;39;20935;-76
2022/11/17 03:25:43;;;;;;;3.70;2.40;;;10.80;99.90;;;;;;2615740;54;20391;-78
2022/11/17 03:31:32;;;;;;;2.47;1.90;;;10.60;99.90;;;;;;2615655;46;20401;-77
2022/11/17 03:37:22;;;;;;;2.60;1.73;;;10.60;99.90;;;;;;2615609;54;21017;-77
2022/11/17 03:43:13;;;;;;;2.20;1.73;;;10.50;99.90;;;;;;2614795;54;20383;-77
2022/11/17 04:02:17;;;;;;;2.40;1.90;;;10.40;99.90;;;;;;2614927;54;20418;-77
2022/11/17 04:08:05;;;;;;;1.83;1.30;;;10.60;99.90;;;;;;2614330;54;20446;-77
2022/11/17 04:17:35;;;;;;;2.03;1.63;;;10.50;99.90;;;;;;2614717;54;20414;-78
2022/11/17 04:23:23;;;;;;;4.37;2.00;;;10.60;99.90;;;;;;2614055;54;20387;-78
2022/11/17 04:29:10;;;;;;;6.00;1.77;;;10.60;99.90;;;;;;2613357;54;20539;-78
2022/11/17 04:34:57;;;;;;;3.37;1.90;;;10.60;99.90;;;;;;2614155;54;20134;-78
2022/11/17 04:46:52;;;;;;;3.67;2.03;;;10.80;99.90;;;;;;2614898;54;20411;-79
2022/11/17 04:52:40;;;;;;;3.40;2.00;;;10.80;99.90;;;;;;2615613;39;20795;-78
2022/11/17 04:58:28;;;;;;;3.33;3.03;;;10.80;99.90;;;;;;2616400;54;20707;-76
2022/11/17 05:04:54;;;;;;;4.50;3.00;;;10.90;99.90;;;;;;2616503;54;20142;-77
2022/11/17 05:13:49;;;;;;;2.80;2.50;;;10.80;99.90;;;;;;2615161;47;20499;-77
2022/11/17 05:19:37;;;;;;;4.00;2.63;;;10.70;99.90;;;;;;2615530;39;20940;-77
2022/11/17 05:25:25;;;;;;;2.50;2.30;;;10.80;99.90;;;;;;2615315;54;20539;-77
2022/11/17 05:31:12;;;;;;;3.10;2.60;;;10.90;99.90;;;;;;2614726;54;20134;-77
2022/11/17 05:36:59;;;;;;;4.77;3.07;;;10.80;99.90;;;;;;2613900;54;20162;-76
2022/11/17 05:42:46;;;;;;;5.37;3.27;;;10.90;99.90;;;;;;2614274;54;20325;-77
2022/11/17 05:48:35;;;;;;;2.40;2.20;;;11.20;99.90;;;;;;2613838;54;20179;-74
2022/11/17 05:54:25;;;;;;;2.53;1.80;;;10.90;99.90;;;;;;2614999;54;20395;-74
2022/11/17 06:00:13;;;;;;;2.60;1.90;;;10.80;99.90;;;;;;2614051;54;20566;-75
2022/11/17 06:09:30;;;;;;;2.40;2.20;;;10.60;99.90;;;;;;2616678;39;20771;-74
2022/11/17 06:15:18;;;;;;;4.23;1.57;;;10.50;99.90;;;;;;2613995;31;20836;-76
2022/11/17 06:21:07;;;;;;;5.10;2.10;;;10.40;99.90;;;;;;2613977;54;20980;-74
2022/11/17 06:26:54;;;;;;;4.37;2.73;;;10.40;99.90;;;;;;2612950;54;20921;-75
2022/11/17 06:32:42;;;;;;;3.40;2.93;;;10.40;99.90;;;;;;2613362;54;20197;-79
2022/11/17 06:38:30;;;;;;;4.93;2.90;;;10.40;99.90;;;;;;2613662;54;20869;-77
2022/11/17 06:44:17;;;;;;;3.03;2.33;;;10.50;99.90;;;;;;2612086;54;20420;-77
2022/11/17 06:50:05;;;;;;;7.60;2.83;;;10.60;99.90;;;;;;2614574;54;20174;-79
2022/11/17 07:02:00;;;;;;;4.23;2.30;;;10.70;99.90;;;;;;2612287;54;20375;-78
2022/11/17 07:08:02;;;;;;;3.90;2.47;;;10.80;99.90;;;;;;2612574;54;20324;-78
2022/11/17 07:13:50;;;;;;;5.03;1.83;;;10.90;99.90;;;;;;2612365;54;20390;-76
2022/11/17 07:19:40;;;;;;;3.60;1.80;;;11.00;99.90;;;;;;2613097;54;20680;-76
2022/11/17 07:25:28;;;;;;;2.60;1.90;;;11.00;99.90;;;;;;2611621;54;20435;-77
2022/11/17 07:34:39;;;;;;;2.57;1.80;;;11.00;99.90;;;;;;2614446;39;20562;-76
2022/11/17 07:40:30;;;;;;;6.00;2.53;;;11.10;99.90;;;;;;2613625;54;20406;-76
2022/11/17 07:46:18;;;;;;;2.13;1.90;;;11.00;99.90;;;;;;2616641;39;20774;-75
2022/11/17 07:52:05;;;;;;;3.67;2.20;;;11.10;99.90;;;;;;2615998;54;20151;-75
2022/11/17 07:57:55;;;;;;;3.60;1.90;;;11.00;99.90;;;;;;2615814;46;20250;-76
2022/11/17 08:03:43;;;;;;;2.97;1.50;;;10.80;99.90;;;;;;2614987;54;20403;-74
2022/11/17 08:09:30;;;;;;;4.17;1.70;;;10.60;99.90;;;;;;2615951;46;20455;-74
2022/11/17 08:15:18;;;;;;;2.30;1.57;;;10.50;99.90;;;;;;2615386;54;20134;-75
2022/11/17 08:21:13;;;;;;;5.90;2.40;;;10.50;99.90;;;;;;2614617;54;20403;-75
2022/11/17 08:27:02;;;;;;;1.83;1.20;;;10.50;99.90;;;;;;2614042;54;20964;-75
2022/11/17 08:32:53;;;;;;;2.93;1.77;;;10.40;99.90;;;;;;2614130;39;20745;-75
2022/11/17 08:38:40;;;;;;;3.63;1.30;;;10.00;99.90;;;;;;2614041;46;20883;-77
2022/11/17 08:44:28;;;;;;;5.33;1.50;;;10.10;99.90;;;;;;2615018;54;20147;-76
2022/11/17 08:50:21;;;;;;;1.70;1.07;;;10.20;99.90;;;;;;2615463;54;20255;-76
2022/11/17 08:56:11;;;;;;;3.20;1.53;;;10.30;99.90;;;;;;2615983;54;20452;-78
2022/11/17 09:01:59;;;;;;;3.30;2.13;;;10.30;99.90;;;;;;2614431;54;20431;-75
2022/11/17 09:08:01;;;;;;;1.87;1.40;;;10.50;99.90;;;;;;2614336;54;20467;-74
2022/11/17 09:13:48;;;;;;;3.20;1.70;;;10.50;99.90;;;;;;2613146;46;20188;-76
2022/11/17 09:19:37;;;;;;;3.00;1.87;;;10.50;99.90;;;;;;2613311;54;20134;-76
2022/11/17 09:25:25;;;;;;;2.53;1.80;;;10.70;99.90;;;;;;2613692;39;20842;-75
2022/11/17 09:31:15;;;;;;;3.00;2.00;;;10.80;99.90;;;;;;2613898;54;20185;-76
2022/11/17 09:40:24;;;;;;;2.83;2.10;;;11.00;99.90;;;;;;2613424;54;20561;-76
2022/11/17 09:46:18;;;;;;;2.63;2.13;;;11.10;99.90;;;;;;2613728;54;20134;-76
2022/11/17 09:58:52;;;;;;;8.20;2.50;;;11.30;99.90;;;;;;2615703;54;20390;-76
2022/11/17 10:04:39;;;;;;;3.87;2.43;;;11.50;99.90;;;;;;2613859;54;20383;-77
2022/11/17 10:13:51;;;;;;;5.37;2.27;;;11.60;99.90;;;;;;2616216;54;21637;-76
2022/11/17 10:19:39;;;;;;;5.60;3.13;;;11.90;99.90;;;;;;2614991;54;20387;-76
2022/11/17 10:25:42;;;;;;;8.00;3.00;;;12.00;99.90;;;;;;2614069;54;20483;-76
2022/11/17 10:38:21;;;;;;;4.23;3.40;;;12.20;99.90;;;;;;2615961;54;20428;-77
2022/11/17 10:44:11;;;;;;;4.60;4.20;;;12.20;99.90;;;;;;2615100;54;20378;-77
2022/11/17 10:50:24;;;;;;;3.30;3.10;;;12.20;99.90;;;;;;2615012;54;20434;-76
2022/11/17 10:56:18;;;;;;;3.70;3.40;;;12.40;99.90;;;;;;2614317;54;20422;-76
2022/11/17 11:08:38;;;;;;;3.13;2.90;;;12.60;99.90;;;;;;2617185;54;20383;-77
2022/11/17 11:14:33;;;;;;;3.50;3.20;;;12.50;99.90;;;;;;2617358;54;20411;-77
2022/11/17 11:40:09;;;;;;;6.83;2.60;;;12.80;99.90;;;;;;2617660;54;20359;-78
2022/11/17 12:03:26;;;;;;;2.60;2.40;;;12.70;99.90;;;;;;2616620;54;20417;-77
2022/11/17 12:15:45;;;;;;;2.90;2.70;;;12.70;99.90;;;;;;2617054;54;20423;-79
2022/11/17 12:21:33;;;;;;;3.43;2.70;;;12.60;99.90;;;;;;2616254;54;20301;-79
2022/11/17 12:33:55;;;;;;;3.37;1.87;;;12.50;99.90;;;;;;2617049;54;20411;-78
2022/11/17 12:40:03;;;;;;;3.93;2.20;;;12.60;99.90;;;;;;2617170;54;20146;-79
2022/11/17 12:45:57;;;;;;;2.47;2.27;;;12.60;99.90;;;;;;2616777;54;20376;-78
2022/11/17 12:51:56;;;;;;;3.20;2.30;;;12.50;99.90;;;;;;2616352;54;20383;-79
2022/11/17 12:57:49;;;;;;;4.50;2.20;;;12.50;99.90;;;;;;2616807;47;20488;-78
2022/11/17 13:10:28;;;;;;;2.60;1.93;;;12.10;99.90;;;;;;2616318;54;20981;-78
2022/11/17 13:16:19;;;;;;;2.10;1.80;;;12.00;99.90;;;;;;2617286;54;20371;-78
2022/11/17 13:22:20;;;;;;;2.50;1.60;;;11.90;99.90;;;;;;2617496;54;20948;-77
2022/11/17 13:41:02;;;;;;;3.50;2.10;;;11.70;99.90;;;;;;2617122;54;20388;-77
2022/11/17 13:47:36;;;;;;;3.43;2.20;;;11.80;99.90;;;;;;2615407;54;20424;-81
2022/11/17 13:53:25;;;;;;;4.80;2.30;;;11.80;99.90;;;;;;2615530;54;20383;-79
2022/11/17 13:59:30;;;;;;;3.97;1.97;;;11.90;99.90;;;;;;2615699;54;20540;-78
2022/11/17 14:05:21;;;;;;;2.30;2.03;;;12.00;99.90;;;;;;2615334;54;20861;-79
2022/11/17 14:11:08;;;;;;;2.47;1.97;;;11.90;99.90;;;;;;2615064;54;20419;-80
2022/11/17 14:16:56;;;;;;;2.50;2.23;;;12.10;99.90;;;;;;2615300;54;20130;-80
2022/11/17 14:29:24;;;;;;;3.47;2.57;;;12.10;99.90;;;;;;2615662;54;20395;-78
2022/11/17 14:35:13;;;;;;;4.23;2.80;;;12.10;99.90;;;;;;2615945;54;20387;-80
2022/11/17 14:41:01;;;;;;;5.37;2.80;;;12.10;99.90;;;;;;2616611;39;20810;-80
2022/11/17 14:46:49;;;;;;;2.67;2.47;;;12.10;99.90;;;;;;2615971;54;20154;-78
2022/11/17 14:52:38;;;;;;;2.70;2.43;;;12.20;99.90;;;;;;2617304;54;20121;-79
2022/11/17 14:58:25;;;;;;;5.03;2.50;;;12.10;99.90;;;;;;2616382;54;20402;-79
2022/11/17 15:04:14;;;;;;;2.90;2.27;;;12.10;99.90;;;;;;2616845;39;20677;-80
2022/11/17 15:10:04;;;;;;;4.97;2.67;;;11.90;99.90;;;;;;2617008;54;20924;-81
2022/11/17 15:22:25;;;;;;;2.67;2.47;;;12.00;99.90;;;;;;2615388;54;21084;-79
2022/11/17 15:28:12;;;;;;;3.63;2.67;;;12.00;99.90;;;;;;2615665;54;20134;-80
2022/11/17 15:34:00;;;;;;;4.53;2.73;;;12.00;99.90;;;;;;2615524;39;20552;-79
2022/11/17 15:39:47;;;;;;;4.37;2.77;;;12.00;99.90;;;;;;2615543;54;20411;-80
2022/11/17 15:45:35;;;;;;;7.07;2.90;;;11.90;99.90;;;;;;2615433;54;20157;-81
2022/11/17 15:51:25;;;;;;;4.63;3.40;;;11.80;99.90;;;;;;2615746;54;20408;-80
2022/11/17 15:57:12;;;;;;;9.80;3.70;;;11.80;99.90;;;;;;2617197;54;20415;-80
2022/11/17 16:03:00;;;;;;;5.50;2.83;;;11.70;99.90;;;;;;2617490;54;20135;-82
2022/11/17 16:08:48;;;;;;;4.37;3.50;;;11.70;99.90;;;;;;2617026;54;20133;-82
2022/11/17 16:11:33;;;;;;;5.83;3.60;;;11.70;99.90;;;;;;2616288;47;20411;-80
2022/11/17 16:13:59;;;;;;;4.67;2.80;;;11.70;99.90;;;;;;2616389;47;20182;-81
2022/11/17 16:19:46;;;;;;;7.20;3.13;;;11.70;99.90;;;;;;2616129;54;20469;-80
2022/11/17 16:35:24;;;;;;;4.73;3.23;;;11.40;99.90;;;;;;2615588;54;20387;-78
2022/11/17 16:41:11;;;;;;;4.00;2.67;;;11.50;99.90;;;;;;2616500;39;20618;-79
2022/11/17 16:46:59;;;;;;;3.90;2.63;;;11.40;99.90;;;;;;2616217;54;20122;-80
2022/11/17 16:52:46;;;;;;;6.10;2.50;;;11.50;99.90;;;;;;2615552;54;20122;-79
2022/11/17 16:58:37;;;;;;;3.70;2.63;;;11.60;99.90;;;;;;2615288;54;20134;-79
2022/11/17 17:04:29;;;;;;;4.67;2.63;;;11.60;99.90;;;;;;2617173;54;20415;-78
2022/11/17 17:10:17;;;;;;;5.77;3.20;;;11.60;99.90;;;;;;2596194;54;20411;-81
2022/11/17 17:16:13;;;;;;;3.37;2.87;;;11.50;99.90;;;;;;2617038;54;20919;-79
2022/11/17 17:22:01;;;;;;;7.23;2.70;;;11.40;99.90;;;;;;2617202;54;20416;-80
2022/11/17 17:27:50;;;;;;;3.83;2.80;;;11.70;99.90;;;;;;2617227;54;20544;-80
2022/11/17 17:33:39;;;;;;;5.33;3.00;;;11.50;99.90;;;;;;2616549;54;20395;-78
2022/11/17 17:39:27;;;;;;;4.33;2.93;;;11.40;99.90;;;;;;2617098;54;20961;-80
2022/11/17 17:45:14;;;;;;;3.83;3.07;;;11.20;99.90;;;;;;2616588;54;20210;-79
2022/11/17 17:51:09;;;;;;;6.07;2.90;;;11.10;99.90;;;;;;2616552;54;20122;-79
2022/11/17 17:56:57;;;;;;;4.87;3.20;;;10.90;99.90;;;;;;2616622;54;20379;-79
2022/11/17 18:02:45;;;;;;;7.67;3.00;;;10.80;99.90;;;;;;2617439;39;20535;-79
2022/11/17 18:08:34;;;;;;;6.90;2.80;;;10.80;99.90;;;;;;2617130;54;20142;-79
2022/11/17 18:17:43;;;;;;;4.80;3.00;;;10.60;99.90;;;;;;2615699;39;20772;-80
2022/11/17 18:23:33;;;;;;;4.90;2.43;;;10.60;99.90;;;;;;2615605;54;20795;-79
2022/11/17 18:29:20;;;;;;;7.10;2.80;;;10.60;99.90;;;;;;2616697;54;20374;-79
2022/11/17 18:35:07;;;;;;;4.50;2.70;;;10.50;99.90;;;;;;2616597;54;20248;-79
2022/11/17 18:41:13;;;;;;;5.87;3.00;;;10.30;99.90;;;;;;2616438;54;20399;-80
2022/11/17 18:47:01;;;;;;;5.17;2.43;;;10.40;99.90;;;;;;2616496;54;20504;-80
2022/11/17 18:52:49;;;;;;;7.20;2.80;;;10.40;99.90;;;;;;2617754;39;20688;-80
2022/11/17 18:58:38;;;;;;;5.27;2.90;;;10.50;99.90;;;;;;2618292;54;20655;-79
2022/11/17 19:04:25;;;;;;;6.17;3.20;;;10.50;99.90;;;;;;2617922;54;20386;-81
2022/11/17 19:10:14;;;;;;;6.07;3.70;;;10.30;99.90;;;;;;2618337;54;20676;-80
2022/11/17 19:13:08;;;;;;;6.70;3.17;;;10.20;99.90;;;;;;2617796;46;20404;-80
2022/11/17 19:15:34;;;;;;;5.50;3.27;;;10.40;99.90;;;;;;2617389;46;20975;-80
2022/11/17 19:21:32;;;;;;;5.73;3.00;;;10.20;99.90;;;;;;2617836;54;20250;-80
2022/11/17 19:27:19;;;;;;;5.77;2.87;;;10.20;99.90;;;;;;2617960;54;20399;-79
2022/11/17 19:33:07;;;;;;;7.70;2.80;;;10.10;99.90;;;;;;2618104;39;20557;-80
2022/11/17 19:38:56;;;;;;;6.50;3.00;;;10.10;99.90;;;;;;2618300;54;20651;-79
2022/11/17 19:44:44;;;;;;;4.77;2.87;;;10.10;99.90;;;;;;2618487;46;20415;-81
2022/11/17 19:50:32;;;;;;;5.70;3.10;;;10.10;99.90;;;;;;2618303;46;20150;-79
2022/11/17 19:56:21;;;;;;;5.30;3.30;;;10.20;99.90;;;;;;2617683;54;20386;-80
2022/11/17 20:02:12;;;;;;;4.77;3.27;;;10.20;99.90;;;;;;2617424;54;20395;-80
2022/11/17 20:08:00;;;;;;;6.70;3.47;;;10.40;99.90;;;;;;2616567;54;20391;-79
2022/11/17 20:17:40;;;;;;;15.00;11.07;;;10.20;99.90;;;;;;2616859;54;20406;-80
2022/11/17 20:23:28;;;;;;;5.10;3.87;;;10.10;99.90;;;;;;2617078;54;20378;-82
2022/11/17 20:29:16;;;;;;;6.07;2.83;;;9.90;99.90;;;;;;2616970;54;20674;-81
2022/11/17 20:35:05;;;;;;;4.43;3.47;;;9.90;99.90;;;;;;2616756;54;20415;-81
2022/11/17 20:40:57;;;;;;;9.50;3.43;;;10.00;99.90;;;;;;2616822;54;20400;-81
2022/11/17 20:46:44;;;;;;;7.47;3.27;;;10.00;99.90;;;;;;2616589;54;20395;-79
2022/11/17 20:52:32;;;;;;;5.30;2.97;;;9.90;99.90;;;;;;2616254;54;20123;-81
2022/11/17 20:58:20;;;;;;;6.67;4.07;;;9.90;99.90;;;;;;2615568;54;20162;-80
2022/11/17 21:04:11;;;;;;;3.50;2.80;;;9.80;99.90;;;;;;2617812;39;20542;-82
2022/11/17 21:10:00;;;;;;;5.10;2.93;;;9.60;99.90;;;;;;2617789;54;20960;-81
2022/11/17 21:13:09;;;;;;;5.20;3.30;;;9.60;99.90;;;;;;2617104;54;20410;-81
2022/11/17 21:15:35;;;;;;;4.10;2.90;;;9.50;99.90;;;;;;2617555;54;20403;-80
2022/11/17 21:21:23;;;;;;;9.90;3.20;;;9.30;99.90;;;;;;2617650;54;20121;-80
2022/11/17 21:27:13;;;;;;;6.37;3.40;;;9.50;99.90;;;;;;2617675;54;20395;-80
2022/11/17 21:33:01;;;;;;;4.07;2.60;;;9.40;99.90;;;;;;2617657;39;20701;-81
2022/11/17 21:38:49;;;;;;;3.77;2.97;;;9.40;99.90;;;;;;2620312;54;20150;-78
2022/11/17 21:44:38;;;;;;;6.67;2.87;;;9.30;99.90;;;;;;2620415;39;20669;-78
2022/11/17 21:50:25;;;;;;;7.00;2.87;;;9.10;99.90;;;;;;2619978;46;20395;-78
2022/11/17 21:56:13;;;;;;;8.87;3.83;;;9.00;99.90;;;;;;2619621;54;20164;-78
2022/11/17 22:02:01;;;;;;;7.67;3.73;;;8.90;99.90;;;;;;2618918;54;21037;-78
2022/11/17 22:07:49;;;;;;;4.77;3.33;;;8.90;99.90;;;;;;2618910;54;20155;-78
2022/11/17 22:23:57;;;;;;;6.47;3.80;;;9.20;99.90;;;;;;2618830;54;20412;-78
2022/11/17 22:29:44;;;;;;;6.83;3.00;;;9.10;99.90;;;;;;2616826;54;20168;-79
2022/11/17 22:35:32;;;;;;;7.03;2.80;;;9.10;99.90;;;;;;2616276;54;20126;-81
2022/11/17 22:41:21;;;;;;;7.20;4.13;;;9.00;99.90;;;;;;2616078;54;20888;-78
2022/11/17 22:47:08;;;;;;;7.33;3.53;;;9.00;99.90;;;;;;2616297;39;20780;-79
2022/11/17 22:52:55;;;;;;;4.20;2.80;;;8.60;99.90;;;;;;2616065;54;20123;-80
2022/11/17 22:58:43;;;;;;;6.87;4.27;;;8.20;99.90;;;;;;2617227;54;20126;-80
2022/11/17 23:04:30;;;;;;;7.00;3.40;;;8.10;99.90;;;;;;2616608;54;20159;-81
2022/11/17 23:10:18;;;;;;;8.87;3.33;;;8.00;99.90;;;;;;2617483;46;20157;-79
2022/11/17 23:13:20;;;;;;;10.73;4.07;;;7.90;99.90;;;;;;2617920;39;20801;-79
2022/11/17 23:15:46;;;;;;;7.00;4.13;;;7.90;99.90;;;;;;2618525;31;20646;-79
2022/11/17 23:18:49;;;;;;;9.07;4.03;;;7.90;99.90;;;;;;2616612;46;20418;-80
2022/11/17 23:21:14;;;;;;;5.50;3.30;;;7.80;99.90;;;;;;2615994;46;20158;-80
2022/11/17 23:27:02;;;;;;;5.30;3.40;;;8.00;99.90;;;;;;2616403;54;20139;-80
2022/11/17 23:32:52;;;;;;;5.73;3.60;;;8.50;99.90;;;;;;2616619;54;20371;-79
2022/11/17 23:38:39;;;;;;;9.00;3.77;;;8.60;99.90;;;;;;2616255;54;20450;-81
2022/11/17 23:44:27;;;;;;;6.00;3.77;;;8.70;99.90;;;;;;2616165;39;20529;-80
2022/11/17 23:50:14;;;;;;;10.27;3.50;;;8.90;99.90;;;;;;2615592;54;20371;-79
2022/11/17 23:56:03;;;;;;;7.70;3.60;;;9.10;99.90;;;;;;2617017;54;20412;-79
